createdAt,value
2023-02-16T00:02:10.286Z,102179.63
2023-02-16T00:05:28.251Z,102175.81
2023-02-16T00:08:31.269Z,102178.50
2023-02-16T00:11:54.415Z,102184.81
2023-02-16T00:14:57.291Z,102186.00
2023-02-16T00:18:02.906Z,102179.97
2023-02-16T00:21:06.043Z,102172.06
2023-02-16T00:24:09.013Z,102181.56
2023-02-16T00:27:18.702Z,102176.03
2023-02-16T00:30:22.820Z,102179.50
2023-02-16T00:33:26.227Z,102178.09
2023-02-16T00:36:29.130Z,102174.72
2023-02-16T00:39:32.641Z,102171.66
2023-02-16T00:42:36.784Z,102163.03
2023-02-16T00:45:39.821Z,102165.34
2023-02-16T00:48:45.291Z,102153.44
2023-02-16T00:51:49.735Z,102161.13
2023-02-16T00:54:52.621Z,102169.78
2023-02-16T00:57:56.942Z,102163.69
2023-02-16T01:01:14.994Z,102173.84
2023-02-16T01:04:23.867Z,102162.78
2023-02-16T01:07:45.503Z,102169.19
2023-02-16T01:11:07.831Z,102168.16
2023-02-16T01:14:13.381Z,102157.75
2023-02-16T01:17:16.274Z,102156.06
2023-02-16T01:20:25.130Z,102159.28
2023-02-16T01:23:28.044Z,102154.53
2023-02-16T01:26:35.488Z,102155.97
2023-02-16T01:29:38.308Z,102141.63
2023-02-16T01:32:41.235Z,102137.78
2023-02-16T01:35:44.596Z,102141.44
2023-02-16T01:38:47.632Z,102130.34
2023-02-16T01:41:59.956Z,102131.72
2023-02-16T01:45:11.649Z,102130.88
2023-02-16T01:48:22.772Z,102129.28
2023-02-16T01:51:47.364Z,102120.59
2023-02-16T01:55:20.614Z,102125.50
2023-02-16T01:58:23.300Z,102121.72
2023-02-16T02:01:38.399Z,102115.78
2023-02-16T02:05:07.397Z,102113.44
2023-02-16T02:08:35.652Z,102104.81
2023-02-16T02:11:49.804Z,102107.41
2023-02-16T02:14:52.750Z,102103.06
2023-02-16T02:17:56.010Z,102098.94
2023-02-16T02:21:52.043Z,102094.22
2023-02-16T02:25:25.762Z,102090.44
2023-02-16T02:28:53.689Z,102091.50
2023-02-16T02:32:02.787Z,102088.31
2023-02-16T02:35:38.293Z,102074.03
2023-02-16T02:38:57.053Z,102077.16
2023-02-16T02:42:31.984Z,102077.22
2023-02-16T02:45:45.949Z,102075.44
2023-02-16T02:48:48.949Z,102072.25
2023-02-16T02:51:52.261Z,102072.78
2023-02-16T02:55:33.432Z,102079.41
2023-02-16T02:58:57.806Z,102071.38
2023-02-16T03:02:03.013Z,102069.50
2023-02-16T03:05:09.723Z,102062.44
2023-02-16T03:08:17.661Z,102059.84
2023-02-16T03:11:47.940Z,102052.69
2023-02-16T03:14:55.513Z,102051.50
2023-02-16T03:18:18.782Z,102049.63
2023-02-16T03:21:41.021Z,102054.91
2023-02-16T03:25:02.828Z,102059.47
2023-02-16T03:28:26.571Z,102056.13
2023-02-16T03:31:34.295Z,102063.06
2023-02-16T03:34:38.056Z,102060.91
2023-02-16T03:37:43.947Z,102062.56
2023-02-16T03:40:49.437Z,102058.19
2023-02-16T03:43:52.344Z,102059.72
2023-02-16T03:46:55.192Z,102055.16
2023-02-16T03:49:58.140Z,102051.16
2023-02-16T03:53:07.112Z,102057.59
2023-02-16T03:56:10.203Z,102055.66
2023-02-16T03:59:13.030Z,102052.25
2023-02-16T04:02:16.068Z,102053.47
2023-02-16T04:05:18.927Z,102054.97
2023-02-16T04:08:21.820Z,102062.22
2023-02-16T04:11:42.985Z,102058.78
2023-02-16T04:14:45.701Z,102060.19
2023-02-16T04:17:49.062Z,102050.09
2023-02-16T04:20:54.209Z,102049.66
2023-02-16T04:23:56.974Z,102048.84
2023-02-16T04:26:59.702Z,102053.09
2023-02-16T04:30:03.622Z,102043.47
2023-02-16T04:33:06.474Z,102048.00
2023-02-16T04:36:09.999Z,102042.44
2023-02-16T04:39:12.875Z,102043.28
2023-02-16T04:42:15.935Z,102038.28
2023-02-16T04:45:18.728Z,102043.13
2023-02-16T04:48:21.630Z,102051.06
2023-02-16T04:51:24.656Z,102049.91
2023-02-16T04:54:28.184Z,102038.09
2023-02-16T04:57:31.232Z,102040.94
2023-02-16T05:00:36.255Z,102037.25
2023-02-16T05:03:39.414Z,102034.94
2023-02-16T05:06:43.127Z,102035.19
2023-02-16T05:09:46.287Z,102034.34
2023-02-16T05:13:07.532Z,102042.13
2023-02-16T05:16:10.337Z,102044.97
2023-02-16T05:19:14.028Z,102046.41
2023-02-16T05:22:17.508Z,102045.56
2023-02-16T05:25:20.373Z,102041.72
2023-02-16T05:28:23.256Z,102046.41
2023-02-16T05:31:27.753Z,102046.66
2023-02-16T05:34:30.792Z,102052.41
2023-02-16T05:37:33.601Z,102047.22
2023-02-16T05:40:36.495Z,102058.69
2023-02-16T05:43:39.446Z,102054.91
2023-02-16T05:46:42.579Z,102061.44
2023-02-16T05:49:45.437Z,102061.59
2023-02-16T05:52:48.343Z,102067.13
2023-02-16T05:55:51.275Z,102071.41
2023-02-16T05:58:54.466Z,102065.69
2023-02-16T06:01:57.315Z,102057.81
2023-02-16T06:05:00.281Z,102062.66
2023-02-16T06:08:03.216Z,102069.13
2023-02-16T06:11:25.473Z,102065.69
2023-02-16T06:14:28.466Z,102064.25
2023-02-16T06:17:31.357Z,102071.72
2023-02-16T06:20:34.161Z,102072.94
2023-02-16T06:23:37.083Z,102072.63
2023-02-16T06:26:40.350Z,102065.97
2023-02-16T06:29:43.261Z,102067.38
2023-02-16T06:32:45.932Z,102072.78
2023-02-16T06:35:48.724Z,102070.41
2023-02-16T06:38:52.645Z,102068.56
2023-02-16T06:41:55.469Z,102071.28
2023-02-16T06:44:58.366Z,102071.38
2023-02-16T06:48:01.215Z,102077.75
2023-02-16T06:51:04.429Z,102076.72
2023-02-16T06:54:07.776Z,102067.00
2023-02-16T06:57:10.618Z,102072.06
2023-02-16T07:00:36.387Z,102068.44
2023-02-16T07:03:41.840Z,102066.16
2023-02-16T07:06:46.258Z,102061.78
2023-02-16T07:09:51.237Z,102058.22
2023-02-16T07:12:55.185Z,102051.38
2023-02-16T07:15:58.304Z,102055.81
2023-02-16T07:19:01.570Z,102049.25
2023-02-16T07:22:05.546Z,102048.25
2023-02-16T07:25:08.562Z,102041.19
2023-02-16T07:28:11.328Z,102043.38
2023-02-16T07:31:16.278Z,102047.84
2023-02-16T07:34:20.923Z,102047.38
2023-02-16T07:37:24.884Z,102043.00
2023-02-16T07:40:28.069Z,102035.16
2023-02-16T07:43:30.837Z,102034.78
2023-02-16T07:46:33.896Z,102035.59
2023-02-16T07:49:36.741Z,102026.63
2023-02-16T07:52:39.684Z,102028.78
2023-02-16T07:55:44.452Z,102024.84
2023-02-16T07:58:47.657Z,102019.97
2023-02-16T08:01:50.542Z,102017.81
2023-02-16T08:04:53.629Z,102013.28
2023-02-16T08:07:56.446Z,102018.81
2023-02-16T08:10:59.745Z,102004.75
2023-02-16T08:14:02.861Z,102005.38
2023-02-16T08:17:07.802Z,102009.81
2023-02-16T08:20:11.014Z,102007.78
2023-02-16T08:23:13.876Z,102008.03
2023-02-16T08:26:24.412Z,102008.22
2023-02-16T08:29:30.035Z,102009.44
2023-02-16T08:32:33.560Z,102009.00
2023-02-16T08:35:38.710Z,102018.06
2023-02-16T08:38:43.415Z,102015.09
2023-02-16T08:41:49.782Z,102016.09
2023-02-16T08:44:57.670Z,102014.78
2023-02-16T08:48:02.425Z,102015.81
2023-02-16T08:51:08.518Z,102015.03
2023-02-16T08:54:20.999Z,102013.34
2023-02-16T08:57:24.075Z,102014.97
2023-02-16T09:00:35.870Z,102012.09
2023-02-16T09:03:42.450Z,102012.66
2023-02-16T09:06:46.785Z,102019.84
2023-02-16T09:09:49.892Z,102012.94
2023-02-16T09:12:53.742Z,102016.19
2023-02-16T09:16:02.885Z,102008.91
2023-02-16T09:19:07.139Z,102019.00
2023-02-16T09:22:09.820Z,102025.06
2023-02-16T09:25:14.028Z,102022.34
2023-02-16T09:28:17.601Z,102021.13
2023-02-16T09:31:31.527Z,102025.66
2023-02-16T09:34:34.742Z,102026.78
2023-02-16T09:37:38.142Z,102019.69
2023-02-16T09:40:41.330Z,102014.69
2023-02-16T09:43:58.134Z,102020.75
2023-02-16T09:47:06.768Z,102019.63
2023-02-16T09:50:53.716Z,102012.22
2023-02-16T09:54:09.937Z,102009.69
2023-02-16T09:57:20.990Z,102014.88
2023-02-16T10:00:26.312Z,102017.47
2023-02-16T10:03:49.478Z,102009.91
2023-02-16T10:07:31.926Z,102008.63
2023-02-16T10:10:55.166Z,101999.34
2023-02-16T10:14:05.360Z,101987.94
2023-02-16T10:17:34.410Z,101999.69
2023-02-16T10:20:40.889Z,101989.75
2023-02-16T10:23:52.298Z,101992.09
2023-02-16T10:27:07.780Z,101990.16
2023-02-16T10:30:16.913Z,101979.13
2023-02-16T10:33:34.210Z,101979.41
2023-02-16T10:37:05.082Z,101978.81
2023-02-16T10:40:33.472Z,101977.78
2023-02-16T10:43:50.990Z,101987.66
2023-02-16T10:47:02.022Z,101975.16
2023-02-16T10:50:11.746Z,101975.78
2023-02-16T10:53:20.006Z,101959.59
2023-02-16T10:56:44.022Z,101962.88
2023-02-16T10:59:47.438Z,101963.66
2023-02-16T11:02:53.031Z,101958.88
2023-02-16T11:05:57.468Z,101954.38
2023-02-16T11:09:04.398Z,101951.09
2023-02-16T11:12:42.253Z,101944.38
2023-02-16T11:15:54.640Z,101942.16
2023-02-16T11:19:21.316Z,101935.50
2023-02-16T11:22:34.373Z,101938.25
2023-02-16T11:25:37.680Z,101925.50
2023-02-16T11:28:52.135Z,101924.53
2023-02-16T11:31:56.261Z,101923.94
2023-02-16T11:34:59.221Z,101924.84
2023-02-16T11:38:02.107Z,101913.16
2023-02-16T11:41:07.423Z,101913.97
2023-02-16T11:44:27.449Z,101907.94
2023-02-16T11:47:40.591Z,101898.09
2023-02-16T11:51:03.213Z,101900.06
2023-02-16T11:54:07.911Z,101891.97
2023-02-16T11:57:15.788Z,101888.97
2023-02-16T12:00:22.536Z,101890.63
2023-02-16T12:03:47.029Z,101884.53
2023-02-16T12:07:09.006Z,101886.78
2023-02-16T12:10:43.004Z,101881.16
2023-02-16T12:14:14.768Z,101885.44
2023-02-16T12:17:28.029Z,101875.66
2023-02-16T12:20:45.559Z,101874.16
2023-02-16T12:24:09.601Z,101859.56
2023-02-16T12:27:30.345Z,101859.31
2023-02-16T12:30:40.938Z,101840.38
2023-02-16T12:33:49.794Z,101841.63
2023-02-16T12:37:14.134Z,101834.16
2023-02-16T12:40:35.923Z,101842.16
2023-02-16T12:43:41.844Z,101830.91
2023-02-16T12:46:48.588Z,101823.16
2023-02-16T12:50:03.660Z,101817.72
2023-02-16T12:53:22.916Z,101824.03
2023-02-16T12:56:33.669Z,101816.72
2023-02-16T12:59:48.908Z,101811.09
2023-02-16T13:03:13.587Z,101808.66
2023-02-16T13:06:17.748Z,101798.38
2023-02-16T13:09:56.912Z,101800.69
2023-02-16T13:13:17.908Z,101787.75
2023-02-16T13:16:30.861Z,101787.41
2023-02-16T13:19:33.961Z,101788.81
2023-02-16T13:22:43.917Z,101775.81
2023-02-16T13:26:18.347Z,101782.63
2023-02-16T13:29:47.817Z,101771.97
2023-02-16T13:33:18.816Z,101774.66
2023-02-16T13:36:59.028Z,101771.44
2023-02-16T13:40:26.490Z,101780.94
2023-02-16T13:43:41.746Z,101780.09
2023-02-16T13:46:50.361Z,101772.19
2023-02-16T13:50:25.021Z,101772.69
2023-02-16T13:53:35.193Z,101779.97
2023-02-16T13:56:38.519Z,101774.16
2023-02-16T13:59:48.285Z,101775.16
2023-02-16T14:02:54.980Z,101773.41
2023-02-16T14:06:27.136Z,101790.03
2023-02-16T14:09:45.717Z,101778.31
2023-02-16T14:12:50.083Z,101784.78
2023-02-16T14:15:55.400Z,101776.66
2023-02-16T14:19:25.196Z,101772.25
2023-02-16T14:22:28.184Z,101763.66
2023-02-16T14:25:35.631Z,101770.88
2023-02-16T14:28:56.997Z,101761.75
2023-02-16T14:32:09.452Z,101773.63
2023-02-16T14:35:30.132Z,101771.94
2023-02-16T14:38:37.149Z,101759.00
2023-02-16T14:41:41.030Z,101761.63
2023-02-16T14:45:03.974Z,101754.66
2023-02-16T14:48:06.685Z,101754.31
2023-02-16T14:51:42.005Z,101752.22
2023-02-16T14:55:15.667Z,101747.06
2023-02-16T14:58:30.555Z,101751.63
2023-02-16T15:01:42.816Z,101748.47
2023-02-16T15:04:47.204Z,101754.41
2023-02-16T15:08:02.605Z,101751.22
2023-02-16T15:11:11.679Z,101747.94
2023-02-16T15:14:16.258Z,101756.06
2023-02-16T15:17:35.970Z,101751.44
2023-02-16T15:20:39.056Z,101746.22
2023-02-16T15:23:52.327Z,101743.38
2023-02-16T15:26:58.109Z,101742.50
2023-02-16T15:30:34.629Z,101741.97
2023-02-16T15:33:40.970Z,101744.72
2023-02-16T15:36:45.753Z,101742.44
2023-02-16T15:40:12.174Z,101730.19
2023-02-16T15:43:16.626Z,101735.97
2023-02-16T15:46:37.922Z,101736.06
2023-02-16T15:49:41.288Z,101734.28
2023-02-16T15:52:44.254Z,101732.47
2023-02-16T15:55:47.736Z,101736.47
2023-02-16T15:58:51.615Z,101741.53
2023-02-16T16:02:13.566Z,101745.69
2023-02-16T16:05:36.369Z,101741.50
2023-02-16T16:08:39.762Z,101737.63
2023-02-16T16:11:42.960Z,101741.38
2023-02-16T16:15:06.806Z,101751.34
2023-02-16T16:18:40.654Z,101760.16
2023-02-16T16:21:56.706Z,101758.19
2023-02-16T16:25:00.283Z,101762.84
2023-02-16T16:28:05.374Z,101758.41
2023-02-16T16:31:15.929Z,101760.34
2023-02-16T16:34:52.709Z,101767.16
2023-02-16T16:37:55.832Z,101771.91
2023-02-16T16:41:02.972Z,101774.34
2023-02-16T16:44:12.330Z,101777.75
2023-02-16T16:47:37.052Z,101778.72
2023-02-16T16:50:40.418Z,101788.03
2023-02-16T16:53:57.923Z,101788.16
2023-02-16T16:57:18.810Z,101788.09
2023-02-16T17:00:23.071Z,101781.66
2023-02-16T17:03:26.182Z,101781.06
2023-02-16T17:06:29.600Z,101786.09
2023-02-16T17:09:32.677Z,101787.31
2023-02-16T17:12:36.327Z,101786.41
2023-02-16T17:15:54.144Z,101789.31
2023-02-16T17:18:57.338Z,101782.81
2023-02-16T17:22:00.345Z,101787.75
2023-02-16T17:25:03.572Z,101791.03
2023-02-16T17:28:07.163Z,101795.19
2023-02-16T17:31:11.314Z,101794.75
2023-02-16T17:34:14.561Z,101801.56
2023-02-16T17:37:19.601Z,101801.88
2023-02-16T17:40:24.337Z,101798.31
2023-02-16T17:43:27.968Z,101789.94
2023-02-16T17:46:32.133Z,101794.81
2023-02-16T17:49:35.894Z,101797.78
2023-02-16T17:52:38.982Z,101797.00
2023-02-16T17:55:42.915Z,101803.25
2023-02-16T17:58:46.242Z,101798.41
2023-02-16T18:01:51.484Z,101796.88
2023-02-16T18:04:56.207Z,101798.91
2023-02-16T18:07:59.337Z,101801.19
2023-02-16T18:11:02.470Z,101794.19
2023-02-16T18:14:05.702Z,101807.34
2023-02-16T18:17:08.898Z,101802.44
2023-02-16T18:20:16.261Z,101798.53
2023-02-16T18:23:20.060Z,101805.34
2023-02-16T18:26:24.036Z,101793.47
2023-02-16T18:29:27.272Z,101800.41
2023-02-16T18:32:30.555Z,101799.41
2023-02-16T18:35:33.714Z,101797.31
2023-02-16T18:38:37.030Z,101803.41
2023-02-16T18:41:40.757Z,101795.09
2023-02-16T18:44:48.198Z,101794.41
2023-02-16T18:47:51.544Z,101787.19
2023-02-16T18:50:54.380Z,101788.88
2023-02-16T18:53:58.286Z,101791.88
2023-02-16T18:57:01.598Z,101789.00
2023-02-16T19:00:06.685Z,101805.00
2023-02-16T19:03:10.256Z,101800.19
2023-02-16T19:06:14.141Z,101795.69
2023-02-16T19:09:18.626Z,101803.34
2023-02-16T19:12:21.944Z,101790.13
2023-02-16T19:15:25.449Z,101795.75
2023-02-16T19:18:29.366Z,101801.44
2023-02-16T19:21:33.125Z,101806.63
2023-02-16T19:24:36.241Z,101809.91
2023-02-16T19:27:40.712Z,101797.75
2023-02-16T19:30:45.791Z,101800.84
2023-02-16T19:33:49.762Z,101799.91
2023-02-16T19:36:54.199Z,101801.28
2023-02-16T19:39:57.401Z,101800.16
2023-02-16T19:43:00.581Z,101793.41
2023-02-16T19:46:05.139Z,101791.00
2023-02-16T19:49:09.174Z,101793.25
2023-02-16T19:52:12.691Z,101800.22
2023-02-16T19:55:15.966Z,101799.19
2023-02-16T19:58:19.172Z,101807.63
2023-02-16T20:01:25.444Z,101805.78
2023-02-16T20:04:28.800Z,101802.47
2023-02-16T20:07:34.736Z,101806.88
2023-02-16T20:10:43.862Z,101811.66
2023-02-16T20:13:50.412Z,101806.38
2023-02-16T20:16:54.689Z,101801.03
2023-02-16T20:19:57.898Z,101799.34
2023-02-16T20:23:01.847Z,101804.81
2023-02-16T20:26:15.519Z,101807.22
2023-02-16T20:29:18.866Z,101810.44
2023-02-16T20:32:26.462Z,101803.09
2023-02-16T20:35:29.718Z,101805.84
2023-02-16T20:38:32.636Z,101818.09
2023-02-16T20:41:36.111Z,101804.44
2023-02-16T20:44:40.106Z,101810.72
2023-02-16T20:47:43.292Z,101807.63
2023-02-16T20:50:46.504Z,101803.34
2023-02-16T20:53:49.789Z,101796.94
2023-02-16T20:56:52.764Z,101796.47
2023-02-16T20:59:56.250Z,101799.53
2023-02-16T21:02:59.878Z,101807.38
2023-02-16T21:06:03.132Z,101812.50
2023-02-16T21:09:07.878Z,101810.00
2023-02-16T21:12:10.936Z,101816.50
2023-02-16T21:15:13.763Z,101828.25
2023-02-16T21:18:16.887Z,101809.34
2023-02-16T21:21:20.856Z,101811.47
2023-02-16T21:24:24.040Z,101810.25
2023-02-16T21:27:26.955Z,101813.47
2023-02-16T21:30:30.107Z,101814.31
2023-02-16T21:33:33.620Z,101810.53
2023-02-16T21:36:37.836Z,101811.22
2023-02-16T21:40:00.065Z,101817.03
2023-02-16T21:43:03.741Z,101812.56
2023-02-16T21:46:08.784Z,101797.06
2023-02-16T21:49:19.742Z,101804.53
2023-02-16T21:52:22.610Z,101803.56
2023-02-16T21:55:45.986Z,101797.75
2023-02-16T21:58:49.465Z,101798.31
2023-02-16T22:01:52.528Z,101788.63
2023-02-16T22:04:55.400Z,101800.13
2023-02-16T22:07:58.974Z,101792.03
2023-02-16T22:11:07.672Z,101805.41
2023-02-16T22:14:11.213Z,101803.97
2023-02-16T22:17:13.985Z,101808.34
2023-02-16T22:20:17.405Z,101802.31
2023-02-16T22:23:20.246Z,101807.72
2023-02-16T22:26:23.112Z,101815.22
2023-02-16T22:29:26.083Z,101802.97
2023-02-16T22:32:28.966Z,101801.53
2023-02-16T22:35:31.764Z,101807.38
2023-02-16T22:38:34.936Z,101807.69
2023-02-16T22:41:38.011Z,101800.94
2023-02-16T22:44:40.774Z,101798.56
2023-02-16T22:47:43.739Z,101800.22
2023-02-16T22:50:57.327Z,101801.47
2023-02-16T22:54:02.050Z,101800.34
2023-02-16T22:57:07.267Z,101796.91
2023-02-16T23:00:15.034Z,101804.69
2023-02-16T23:03:18.378Z,101801.94
2023-02-16T23:06:24.351Z,101808.78
2023-02-16T23:09:27.419Z,101799.44
2023-02-16T23:12:30.234Z,101813.44
2023-02-16T23:15:35.738Z,101820.59
2023-02-16T23:18:39.047Z,101822.41
2023-02-16T23:21:42.244Z,101812.38
2023-02-16T23:24:45.034Z,101813.09
2023-02-16T23:27:47.861Z,101816.03
2023-02-16T23:30:50.806Z,101816.44
2023-02-16T23:33:56.174Z,101817.19
2023-02-16T23:36:59.066Z,101820.09
2023-02-16T23:40:02.097Z,101810.13
2023-02-16T23:43:05.040Z,101820.84
2023-02-16T23:46:09.440Z,101816.25
2023-02-16T23:49:12.490Z,101820.09
2023-02-16T23:52:16.256Z,101820.84
2023-02-16T23:55:19.170Z,101813.88
2023-02-16T23:58:22.087Z,101808.53
